Time;durP1;ratioP1;P1;durP2;ratioP2;P2;SDS_P1;SDS_P2;PMS_P1;PMS_P2;Temp;Humidity;BMP_temperature;BMP_pressure;BME280_temperature;BME280_humidity;BME280_pressure;Samples;Min_cycle;Max_cycle;Signal;HPM_P1;HPM_P2
2022/03/25 00:01:00;;;;;;;;;;;7.20;90.70;;;6.35;52.50;96422.69;10517646;28;1874;-72
2022/03/25 00:06:04;;;;;;;;;;;7.50;86.00;;;6.34;52.63;96418.38;10523272;28;1987;-72
2022/03/25 00:11:07;;;;;;;;;;;7.60;86.30;;;6.30;53.17;96415.38;10509743;28;1759;-72
2022/03/25 00:16:10;;;;;;;;;;;7.50;86.60;;;6.22;54.09;96421.03;10513373;28;1810;-72
2022/03/25 00:21:13;;;;;;;;;;;7.50;87.20;;;6.12;54.96;96420.81;10514069;28;1738;-72
2022/03/25 00:26:16;;;;;;;;;;;7.40;87.70;;;6.07;56.02;96412.66;10514006;28;1953;-72
2022/03/25 00:31:20;;;;;;;;;;;7.20;88.40;;;6.04;55.61;96416.59;10509023;28;2024;-72
2022/03/25 00:36:23;;;;;;;;;;;7.20;88.60;;;5.95;56.09;96408.13;10517955;28;1969;-72
2022/03/25 00:41:27;;;;;;;;;;;7.20;88.80;;;5.96;56.67;96399.06;10518610;28;1834;-73
2022/03/25 00:46:30;;;;;;;;;;;7.20;89.20;;;5.90;57.73;96399.94;10515362;28;1984;-72
2022/03/25 00:51:34;;;;;;;;;;;7.10;89.90;;;5.82;57.80;96402.94;10509673;28;1877;-72
2022/03/25 00:56:37;;;;;;;;;;;7.10;90.30;;;5.82;59.18;96397.59;10514037;28;1912;-73
2022/03/25 01:01:40;;;;;;;;;;;7.10;91.00;;;5.80;58.84;96397.03;10526075;28;1822;-71
2022/03/25 01:06:46;;;;;;;;;;;7.10;91.40;;;5.69;58.66;96397.81;10513729;28;1977;-72
2022/03/25 01:11:49;;;;;;;;;;;6.80;92.40;;;5.57;59.48;96392.44;10519155;28;2075;-72
2022/03/25 01:16:55;;;;;;;;;;;;;;;5.41;60.36;96401.88;10517182;28;1846;-72
2022/03/25 01:21:59;;;;;;;;;;;;;;;5.38;60.49;96394.31;10521176;28;1882;-71
2022/03/25 01:27:04;;;;;;;;;;;6.50;99.90;;;5.45;59.92;96390.75;10514420;28;2040;-72
2022/03/25 01:32:08;;;;;;;;;;;6.60;99.90;;;5.40;60.10;96392.22;10513821;28;2364;-72
2022/03/25 01:37:12;;;;;;;;;;;6.50;99.90;;;5.28;60.85;96395.88;10520532;28;1854;-72
2022/03/25 01:42:15;;;;;;;;;;;6.50;99.90;;;5.29;61.34;96393.03;10516845;28;2032;-72
2022/03/25 01:47:19;;;;;;;;;;;6.50;99.90;;;5.28;61.42;96390.56;10504077;28;1910;-72
2022/03/25 01:52:23;;;;;;;;;;;6.50;99.90;;;5.16;61.93;96393.19;10516035;28;1858;-71
2022/03/25 01:57:27;;;;;;;;;;;5.60;99.90;;;5.05;61.99;96392.09;10518410;28;1858;-71
2022/03/25 02:02:30;;;;;;;;;;;;;;;5.00;62.54;96381.28;10519282;28;1885;-71
2022/03/25 02:07:35;;;;;;;;;;;;;;;4.85;61.91;96387.00;10511814;28;1964;-72
2022/03/25 02:12:38;;;;;;;;;;;;;;;4.75;62.60;96381.34;10519737;28;1779;-72
2022/03/25 02:17:42;;;;;;;;;;;6.00;94.70;;;4.68;62.78;96385.94;10514779;28;1881;-71
2022/03/25 02:22:46;;;;;;;;;;;5.90;94.70;;;4.62;63.73;96394.81;10521726;28;1873;-72
2022/03/25 02:27:49;;;;;;;;;;;5.60;95.40;;;4.47;64.82;96383.72;10517547;28;1936;-74
2022/03/25 02:32:53;;;;;;;;;;;5.80;95.60;;;4.42;64.87;96391.53;10518369;28;1933;-72
2022/03/25 02:37:56;;;;;;;;;;;5.80;95.70;;;4.38;64.26;96395.66;10509532;28;1778;-73
2022/03/25 02:43:00;;;;;;;;;;;5.50;95.70;;;4.34;64.64;96385.47;10507026;28;2064;-72
2022/03/25 02:48:03;;;;;;;;;;;5.60;95.60;;;4.32;64.47;96395.50;10513619;28;1979;-72
2022/03/25 02:53:07;;;;;;;;;;;5.60;95.70;;;4.29;63.83;96398.59;10505555;28;1850;-72
2022/03/25 02:58:11;;;;;;;;;;;5.70;95.90;;;4.22;64.76;96392.53;10516595;28;1782;-72
2022/03/25 03:03:14;;;;;;;;;;;6.00;96.30;;;4.21;65.00;96392.75;10512842;28;1829;-71
2022/03/25 03:08:18;;;;;;;;;;;5.60;96.10;;;4.24;63.30;96390.47;10516068;28;1934;-72
2022/03/25 03:13:21;;;;;;;;;;;5.30;95.80;;;4.26;63.51;96393.75;10516057;28;1799;-72
2022/03/25 03:18:25;;;;;;;;;;;5.70;95.60;;;4.21;62.60;96393.56;10520388;28;2056;-71
2022/03/25 03:23:28;;;;;;;;;;;5.40;95.30;;;4.17;62.61;96388.91;10505157;28;1881;-72
2022/03/25 03:28:31;;;;;;;;;;;5.40;95.00;;;4.19;62.97;96390.28;10519547;28;1981;-72
2022/03/25 03:33:34;;;;;;;;;;;5.50;95.20;;;4.17;62.66;96400.34;10510031;28;1858;-72
2022/03/25 03:38:38;;;;;;;;;;;5.30;94.80;;;4.12;62.31;96394.84;10540700;28;1857;-73
2022/03/25 03:43:41;;;;;;;;;;;5.50;94.80;;;4.06;63.03;96393.88;10504037;28;1847;-72
2022/03/25 03:48:44;;;;;;;;;;;5.40;95.00;;;4.04;63.20;96395.94;10509873;28;1941;-71
2022/03/25 03:53:47;;;;;;;;;;;5.20;95.60;;;4.02;63.68;96392.72;10521862;28;2030;-72
2022/03/25 03:58:50;;;;;;;;;;;5.30;95.70;;;4.00;64.66;96391.28;10516688;28;1885;-72
2022/03/25 04:03:54;;;;;;;;;;;5.30;96.20;;;4.01;63.89;96393.75;10512118;28;1818;-71
2022/03/25 04:08:57;;;;;;;;;;;5.30;96.00;;;3.91;63.93;96389.94;10511390;28;1984;-72
2022/03/25 04:14:02;;;;;;;;;;;5.90;96.50;;;3.84;65.23;96383.84;10512661;28;1822;-73
2022/03/25 04:19:10;;;;;;;;;;;5.10;96.70;;;3.82;66.09;96380.56;10505202;28;1799;-71
2022/03/25 04:24:14;;;;;;;;;;;5.10;97.20;;;3.88;65.66;96385.88;10538380;28;1886;-72
2022/03/25 04:29:18;;;;;;;;;;;5.10;97.40;;;3.88;65.57;96383.22;10512211;28;1919;-72
2022/03/25 04:34:21;;;;;;;;;;;5.10;97.60;;;3.88;66.00;96385.88;10516219;28;1974;-73
2022/03/25 04:39:25;;;;;;;;;;;5.10;98.00;;;3.90;66.00;96382.97;10515341;28;1869;-73
2022/03/25 04:44:28;;;;;;;;;;;5.10;98.10;;;3.89;65.90;96398.13;10508585;28;2068;-71
2022/03/25 04:49:31;;;;;;;;;;;5.10;98.10;;;3.85;67.10;96385.47;10515487;28;2001;-72
2022/03/25 04:54:34;;;;;;;;;;;5.10;98.60;;;3.80;67.38;96388.78;10509184;28;1875;-73
2022/03/25 04:59:38;;;;;;;;;;;5.20;98.70;;;3.77;67.81;96390.03;10508454;28;1831;-72
2022/03/25 05:04:41;;;;;;;;;;;5.00;98.90;;;3.69;68.37;96398.28;10513886;28;1841;-71
2022/03/25 05:09:45;;;;;;;;;;;4.90;99.10;;;3.75;67.71;96402.72;10520099;28;1918;-73
2022/03/25 05:14:48;;;;;;;;;;;5.00;99.50;;;3.79;68.00;96409.22;10532650;28;1835;-72
2022/03/25 05:19:51;;;;;;;;;;;5.00;99.70;;;3.84;67.80;96410.44;10509677;28;1914;-71
2022/03/25 05:24:54;;;;;;;;;;;5.00;99.70;;;3.87;68.03;96407.34;10508164;28;1846;-72
2022/03/25 05:29:57;;;;;;;;;;;5.00;99.60;;;3.98;68.25;96404.00;10528959;28;1966;-74
2022/03/25 05:35:00;;;;;;;;;;;5.10;99.90;;;4.18;68.63;96401.16;10509332;28;2155;-71
2022/03/25 05:40:04;;;;;;;;;;;5.20;99.90;;;4.30;66.94;96410.06;10510133;28;2017;-73
2022/03/25 05:45:06;;;;;;;;;;;5.30;99.90;;;4.54;66.53;96405.75;10507887;28;1881;-72
2022/03/25 05:50:09;;;;;;;;;;;5.40;99.90;;;4.80;65.91;96421.47;10514744;28;2279;-73
2022/03/25 05:55:13;;;;;;;;;;;5.60;99.50;;;5.06;64.75;96424.88;10512786;28;2009;-72
2022/03/25 06:00:17;;;;;;;;;;;5.90;99.30;;;5.35;63.15;96424.13;10522542;28;1941;-71
2022/03/25 06:05:20;;;;;;;;;;;6.10;98.60;;;5.57;62.83;96424.44;10509361;28;2083;-72
2022/03/25 06:10:25;;;;;;;;;;;6.30;98.10;;;5.83;61.79;96417.91;10513233;28;2240;-72
2022/03/25 06:15:29;;;;;;;;;;;6.50;97.60;;;6.08;61.52;96417.78;10524261;28;1926;-72
2022/03/25 06:20:32;;;;;;;;;;;6.70;97.40;;;6.29;59.78;96432.41;10523860;28;1846;-72
2022/03/25 06:25:35;;;;;;;;;;;6.90;96.60;;;6.51;59.77;96424.69;10522122;28;1846;-71
2022/03/25 06:30:39;;;;;;;;;;;7.20;96.50;;;6.77;58.84;96420.72;10511685;28;1965;-72
2022/03/25 06:35:44;;;;;;;;;;;7.30;96.20;;;6.92;57.52;96421.03;10518290;28;1867;-72
2022/03/25 06:40:47;;;;;;;;;;;7.50;95.40;;;7.11;58.03;96429.72;10518807;28;1960;-72
2022/03/25 06:45:50;;;;;;;;;;;7.70;95.30;;;7.21;57.71;96429.97;10530765;28;2064;-72
2022/03/25 06:50:54;;;;;;;;;;;7.90;95.10;;;7.49;56.91;96434.53;10512397;28;2036;-72
2022/03/25 06:55:57;;;;;;;;;;;8.00;94.70;;;7.65;56.51;96426.81;10520651;28;1865;-72
2022/03/25 07:01:00;;;;;;;;;;;8.10;94.30;;;8.00;55.13;96432.78;10531303;28;2351;-72
2022/03/25 07:06:03;;;;;;;;;;;8.40;93.90;;;8.20;53.53;96431.53;10510108;28;1865;-73
2022/03/25 07:11:07;;;;;;;;;;;8.60;92.80;;;8.48;53.02;96439.53;10510399;28;1906;-72
2022/03/25 07:16:09;;;;;;;;;;;8.90;92.30;;;8.41;51.16;96446.94;10515641;28;1803;-72
2022/03/25 07:21:13;;;;;;;;;;;9.00;90.40;;;8.48;50.68;96450.25;10518690;28;1869;-72
2022/03/25 07:26:18;;;;;;;;;;;9.10;89.60;;;8.70;49.71;96450.31;10523906;28;2239;-72
2022/03/25 07:31:21;;;;;;;;;;;9.20;89.30;;;8.74;48.07;96453.34;10518251;28;2037;-72
2022/03/25 07:36:24;;;;;;;;;;;9.30;87.70;;;8.85;46.88;96455.13;10511780;28;1877;-73
2022/03/25 07:41:28;;;;;;;;;;;9.50;86.20;;;8.94;45.55;96451.75;10513569;28;2633;-72
2022/03/25 07:46:31;;;;;;;;;;;9.60;85.30;;;9.23;44.18;96450.81;10520527;28;1930;-72
2022/03/25 07:51:35;;;;;;;;;;;9.80;84.40;;;9.40;43.95;96456.91;10507859;28;1922;-75
2022/03/25 07:56:38;;;;;;;;;;;9.90;83.70;;;9.52;43.85;96449.56;10505581;28;1902;-73
2022/03/25 08:01:41;;;;;;;;;;;10.20;83.10;;;9.99;42.85;96455.22;10515984;28;1830;-73
2022/03/25 08:06:45;;;;;;;;;;;10.40;82.90;;;10.03;42.06;96458.19;10517043;28;2176;-72
2022/03/25 08:11:49;;;;;;;;;;;10.60;82.60;;;10.25;42.20;96458.97;10513942;28;1985;-73
2022/03/25 08:16:58;;;;;;;;;;;10.80;81.70;;;10.47;40.78;96452.72;10514405;28;1879;-73
2022/03/25 08:22:01;;;;;;;;;;;10.90;80.90;;;10.69;40.36;96466.88;10513804;28;1844;-73
2022/03/25 08:32:26;;;;;;;;;;;11.40;79.40;;;11.46;38.27;96456.59;10505130;28;1811;-73
2022/03/25 08:37:30;;;;;;;;;;;11.70;79.20;;;11.14;38.01;96460.22;10507811;28;1911;-72
2022/03/25 08:42:33;;;;;;;;;;;12.00;77.30;;;11.60;37.05;96457.75;10512448;28;1735;-72
2022/03/25 08:47:37;;;;;;;;;;;12.20;76.50;;;11.90;36.35;96462.47;10513865;28;1985;-72
2022/03/25 08:52:41;;;;;;;;;;;12.40;76.10;;;12.11;35.58;96472.22;10508488;28;1859;-71
2022/03/25 08:57:45;;;;;;;;;;;12.50;75.20;;;12.30;35.15;96469.00;10516971;28;1688;-72
2022/03/25 09:02:49;;;;;;;;;;;12.40;74.60;;;12.47;34.80;96471.44;10516520;28;1897;-72
2022/03/25 09:07:52;;;;;;;;;;;12.90;74.60;;;12.58;34.49;96459.59;10513472;28;1981;-72
2022/03/25 09:12:55;;;;;;;;;;;13.20;73.70;;;12.95;33.92;96453.91;10517170;28;1838;-74
2022/03/25 09:17:58;;;;;;;;;;;13.30;73.90;;;13.28;34.12;96463.34;10510521;28;1948;-73
2022/03/25 09:23:06;;;;;;;;;;;13.60;73.80;;;13.21;34.13;96470.91;10522090;28;1786;-73
2022/03/25 09:28:10;;;;;;;;;;;13.80;73.20;;;13.48;33.45;96460.56;10521323;28;1912;-75
2022/03/25 09:33:14;;;;;;;;;;;13.90;73.50;;;13.36;34.73;96459.25;10521598;28;1815;-74
2022/03/25 09:38:19;;;;;;;;;;;13.90;73.60;;;13.58;33.53;96464.34;10519794;28;1841;-73
2022/03/25 09:43:22;;;;;;;;;;;14.30;73.40;;;13.72;33.68;96462.66;10515215;28;1830;-73
2022/03/25 09:48:26;;;;;;;;;;;;;;;13.72;32.49;96458.06;10518076;28;2261;-73
2022/03/25 09:53:41;;;;;;;;;;;14.40;71.80;;;13.73;32.83;96461.56;10519215;28;1822;-74
2022/03/25 09:58:43;;;;;;;;;;;14.50;71.80;;;13.66;32.58;96461.88;10523532;28;1850;-74
2022/03/25 10:03:47;;;;;;;;;;;14.50;71.70;;;13.63;33.24;96454.31;10515890;28;2015;-74
2022/03/25 10:08:50;;;;;;;;;;;14.60;71.80;;;13.97;33.41;96450.94;10528260;28;1921;-73
2022/03/25 10:13:55;;;;;;;;;;;14.60;71.90;;;13.76;32.86;96448.31;10512895;28;1978;-73
2022/03/25 10:18:58;;;;;;;;;;;14.80;71.40;;;14.11;32.90;96454.63;10515903;28;1862;-72
2022/03/25 10:24:01;;;;;;;;;;;15.10;72.10;;;14.29;32.83;96443.16;10515593;28;1802;-72
2022/03/25 10:29:04;;;;;;;;;;;15.00;71.70;;;14.45;32.62;96453.88;10516674;28;1979;-72
2022/03/25 10:34:08;;;;;;;;;;;15.10;71.60;;;14.73;31.99;96449.63;10511156;28;1838;-74
2022/03/25 10:39:16;;;;;;;;;;;15.30;71.30;;;14.57;32.58;96444.34;10516332;28;1893;-74
2022/03/25 10:44:19;;;;;;;;;;;15.40;71.20;;;14.91;32.81;96440.81;10513185;28;1937;-72
2022/03/25 10:49:22;;;;;;;;;;;15.50;71.80;;;15.08;30.44;96451.22;10512487;28;1917;-73
2022/03/25 10:54:26;;;;;;;;;;;15.80;70.10;;;14.69;30.02;96443.97;10517189;28;1842;-74
2022/03/25 10:59:29;;;;;;;;;;;15.80;68.20;;;15.10;30.47;96433.59;10520076;28;1875;-74
2022/03/25 11:04:32;;;;;;;;;;;15.80;68.90;;;15.18;31.30;96434.06;10523975;28;1814;-74
2022/03/25 11:09:35;;;;;;;;;;;16.00;69.70;;;15.27;31.02;96432.34;10520782;28;1918;-74
2022/03/25 11:14:38;;;;;;;;;;;16.10;69.40;;;15.05;29.92;96425.53;10510406;28;1838;-74
2022/03/25 11:19:41;;;;;;;;;;;16.00;68.20;;;15.36;29.66;96426.00;10513362;28;1901;-73
2022/03/25 11:24:44;;;;;;;;;;;16.00;68.20;;;15.28;29.75;96417.72;10506793;28;1988;-74
2022/03/25 11:29:48;;;;;;;;;;;16.10;67.90;;;15.38;29.10;96420.28;10537395;28;1918;-74
2022/03/25 11:34:51;;;;;;;;;;;16.10;67.10;;;15.41;29.71;96411.59;10533045;28;1955;-74
2022/03/25 11:39:54;;;;;;;;;;;16.20;67.90;;;15.66;30.58;96414.03;10528709;28;1771;-73
2022/03/25 11:44:57;;;;;;;;;;;16.30;68.90;;;15.64;30.46;96402.66;10514670;28;1850;-75
2022/03/25 11:50:00;;;;;;;;;;;16.60;67.50;;;15.66;29.34;96402.41;10524703;28;1985;-74
2022/03/25 11:55:04;;;;;;;;;;;16.60;67.40;;;15.60;29.92;96393.50;10511987;28;1858;-74
2022/03/25 12:00:10;;;;;;;;;;;16.70;67.80;;;15.85;28.79;96388.88;10514615;28;2042;-74
2022/03/25 12:05:15;;;;;;;;;;;16.60;66.80;;;15.91;29.16;96388.50;10517314;28;1946;-73
2022/03/25 12:10:18;;;;;;;;;;;16.80;67.00;;;15.93;28.23;96380.06;10515591;28;1918;-75
2022/03/25 12:15:21;;;;;;;;;;;16.90;66.20;;;15.90;28.49;96395.03;10508771;28;1890;-74
2022/03/25 12:20:25;;;;;;;;;;;16.90;66.00;;;15.81;27.47;96377.00;10513794;28;1952;-74
2022/03/25 12:25:31;;;;;;;;;;;16.90;65.20;;;16.00;27.52;96385.94;10528917;28;1845;-75
2022/03/25 12:30:34;;;;;;;;;;;17.00;65.10;;;15.99;27.35;96370.78;10512058;28;1927;-73
2022/03/25 12:35:37;;;;;;;;;;;17.10;64.80;;;16.35;27.70;96367.50;10524839;28;1923;-74
2022/03/25 12:40:41;;;;;;;;;;;17.10;64.50;;;16.18;26.41;96360.72;10510937;28;1877;-74
2022/03/25 12:45:45;;;;;;;;;;;17.10;63.60;;;15.87;26.50;96362.28;10516213;28;1991;-74
2022/03/25 12:50:48;;;;;;;;;;;16.90;63.10;;;15.77;23.88;96359.69;10510080;28;1922;-73
2022/03/25 12:55:51;;;;;;;;;;;16.80;60.70;;;16.01;24.39;96355.00;10507352;28;1786;-73
2022/03/25 13:00:56;;;;;;;;;;;16.80;60.80;;;15.82;24.94;96351.50;10515215;28;1835;-73
2022/03/25 13:05:59;;;;;;;;;;;16.80;61.30;;;15.91;23.99;96342.41;10513278;28;1876;-74
2022/03/25 13:11:02;;;;;;;;;;;16.80;60.30;;;16.26;24.89;96340.25;10516875;28;1914;-74
2022/03/25 13:16:05;;;;;;;;;;;17.00;61.50;;;16.11;23.62;96337.78;10511759;28;1782;-74
2022/03/25 13:21:08;;;;;;;;;;;17.00;59.80;;;16.27;23.09;96330.19;10514494;28;1811;-73
2022/03/25 13:26:11;;;;;;;;;;;17.00;59.10;;;16.40;22.52;96329.44;10508737;28;1778;-75
2022/03/25 13:31:14;;;;;;;;;;;17.10;58.60;;;16.18;25.00;96321.94;10515436;28;2019;-73
2022/03/25 13:36:18;;;;;;;;;;;17.10;60.50;;;16.41;24.29;96320.19;10513293;28;1889;-75
2022/03/25 13:41:20;;;;;;;;;;;17.20;60.60;;;16.06;24.03;96327.00;10511719;28;1806;-75
2022/03/25 13:46:23;;;;;;;;;;;17.20;59.70;;;16.12;24.36;96318.50;10507780;28;1869;-75
2022/03/25 13:51:27;;;;;;;;;;;17.00;60.10;;;16.34;23.91;96317.06;10508277;28;2008;-76
2022/03/25 13:56:31;;;;;;;;;;;17.10;60.00;;;16.36;23.07;96314.88;10518726;28;1736;-74
2022/03/25 14:01:35;;;;;;;;;;;17.10;59.00;;;16.47;23.45;96297.28;10526164;28;2020;-75
2022/03/25 14:06:39;;;;;;;;;;;17.30;59.50;;;16.39;23.80;96301.50;10516838;28;1847;-75
2022/03/25 14:11:59;;;;;;;;;;;17.30;59.60;;;16.53;24.34;96300.72;10518570;28;1976;-73
2022/03/25 14:17:02;;;;;;;;;;;17.40;60.40;;;16.34;24.36;96303.50;10522157;28;1821;-72
2022/03/25 14:22:07;;;;;;;;;;;17.20;60.00;;;16.34;24.44;96298.88;10513007;28;1540;-74
2022/03/25 14:27:11;;;;;;;;;;;17.30;60.30;;;16.31;24.47;96298.69;10520431;28;1823;-72
2022/03/25 14:32:14;;;;;;;;;;;17.20;60.40;;;16.16;24.96;96292.41;10510462;28;1902;-73
2022/03/25 14:37:17;;;;;;;;;;;17.30;60.60;;;16.17;24.93;96294.00;10516394;28;1876;-72
2022/03/25 14:42:20;;;;;;;;;;;17.10;60.40;;;16.45;24.98;96285.94;10507370;28;1783;-73
2022/03/25 14:47:24;;;;;;;;;;;17.30;60.80;;;16.21;24.88;96289.59;10516273;28;1956;-75
2022/03/25 14:52:27;;;;;;;;;;;17.40;60.20;;;16.11;24.91;96287.06;10510329;28;1940;-74
2022/03/25 14:57:31;;;;;;;;;;;17.10;60.30;;;16.01;24.78;96283.69;10517416;28;1894;-75
2022/03/25 15:02:37;;;;;;;;;;;17.20;60.40;;;16.14;24.91;96281.03;10513018;28;1854;-75
2022/03/25 15:07:42;;;;;;;;;;;16.90;60.40;;;16.12;24.61;96275.09;10512442;28;1872;-74
2022/03/25 15:12:48;;;;;;;;;;;17.10;60.00;;;16.11;24.41;96278.13;10514705;28;2277;-75
2022/03/25 15:17:51;;;;;;;;;;;17.10;59.80;;;15.99;24.62;96269.66;10517380;28;1830;-74
2022/03/25 15:22:54;;;;;;;;;;;17.00;59.90;;;15.92;24.81;96270.03;10511637;28;1889;-75
2022/03/25 15:27:57;;;;;;;;;;;17.10;60.10;;;15.99;24.57;96275.88;10513617;28;1747;-74
2022/03/25 15:38:20;;;;;;;;;;;17.10;60.40;;;15.80;25.30;96275.09;10523864;28;1827;-76
2022/03/25 15:43:24;;;;;;;;;;;16.90;60.40;;;15.75;24.76;96269.75;10516272;28;1905;-76
2022/03/25 15:48:27;;;;;;;;;;;16.60;60.10;;;15.56;25.15;96267.00;10516767;28;1747;-76
2022/03/25 15:53:30;;;;;;;;;;;16.60;60.10;;;15.60;24.98;96268.84;10519631;28;1909;-75
2022/03/25 15:58:32;;;;;;;;;;;16.60;60.10;;;15.60;24.79;96266.13;10525169;28;1837;-75
2022/03/25 16:03:36;;;;;;;;;;;16.60;60.20;;;15.56;24.80;96267.81;10510901;28;1834;-76
2022/03/25 16:08:40;;;;;;;;;;;16.70;60.30;;;15.46;25.30;96267.13;10520898;28;1834;-77
2022/03/25 16:13:43;;;;;;;;;;;16.30;60.20;;;15.47;25.69;96274.19;10502979;28;1980;-76
2022/03/25 16:18:48;;;;;;;;;;;16.40;60.50;;;15.35;25.63;96274.63;10510484;28;1850;-75
2022/03/25 16:23:51;;;;;;;;;;;16.30;60.60;;;15.26;25.63;96270.94;10503412;28;1962;-75
2022/03/25 16:28:54;;;;;;;;;;;16.30;60.60;;;15.25;26.23;96272.03;10515762;28;1664;-76
2022/03/25 16:33:57;;;;;;;;;;;16.30;61.00;;;15.03;26.28;96273.38;10512443;28;1926;-75
2022/03/25 16:39:00;;;;;;;;;;;16.20;61.10;;;15.06;26.15;96270.09;10501661;28;1498;-75
2022/03/25 16:44:03;;;;;;;;;;;16.00;61.00;;;15.04;25.92;96272.28;10514414;28;1450;-77
2022/03/25 16:49:08;;;;;;;;;;;16.10;61.10;;;14.95;25.52;96268.63;10505993;28;1684;-75
2022/03/25 16:54:11;;;;;;;;;;;15.80;60.30;;;14.84;26.03;96272.53;10514904;28;2004;-75
2022/03/25 16:59:14;;;;;;;;;;;15.80;60.60;;;14.56;26.32;96283.09;10517176;28;1385;-76
2022/03/25 17:04:37;;;;;;;;;;;15.60;60.80;;;14.49;26.61;96288.03;10503402;28;1534;-75
2022/03/25 17:09:40;;;;;;;;;;;15.40;61.10;;;14.45;26.51;96284.28;10529566;28;1993;-75
2022/03/25 17:14:44;;;;;;;;;;;15.20;60.90;;;14.28;26.58;96279.28;10503310;28;1552;-75
2022/03/25 17:19:47;;;;;;;;;;;15.30;61.20;;;14.19;26.34;96291.03;10507251;28;1490;-74
2022/03/25 17:24:50;;;;;;;;;;;15.00;61.10;;;13.83;27.63;96295.91;10518314;28;2019;-74
2022/03/25 17:29:54;;;;;;;;;;;14.80;61.50;;;13.88;27.69;96302.06;10518041;28;1981;-75
2022/03/25 17:34:57;;;;;;;;;;;14.90;62.40;;;13.65;28.43;96308.16;10504741;28;1344;-75
2022/03/25 17:40:01;;;;;;;;;;;14.80;62.40;;;13.23;28.84;96310.28;10504299;28;1526;-75
2022/03/25 17:45:05;;;;;;;;;;;14.70;63.60;;;12.95;29.65;96314.41;10512910;28;1434;-75
2022/03/25 17:50:09;;;;;;;;;;;14.10;63.30;;;13.03;29.14;96325.72;10521525;28;1984;-75
2022/03/25 17:55:13;;;;;;;;;;;13.90;63.40;;;13.04;29.92;96322.75;10515636;28;1542;-77
2022/03/25 18:00:16;;;;;;;;;;;14.00;63.90;;;13.00;29.92;96332.47;10514040;28;1587;-76
2022/03/25 18:05:19;;;;;;;;;;;14.00;64.20;;;12.96;30.39;96326.81;10513676;28;1497;-76
2022/03/25 18:10:23;;;;;;;;;;;13.90;64.90;;;12.73;30.78;96343.63;10530443;28;1952;-74
2022/03/25 18:15:25;;;;;;;;;;;13.80;65.10;;;12.50;31.65;96344.19;10523982;28;1442;-75
2022/03/25 18:20:28;;;;;;;;;;;13.60;65.70;;;12.29;32.00;96354.19;10510720;28;1477;-75
2022/03/25 18:25:31;;;;;;;;;;;13.30;66.20;;;12.34;32.58;96357.69;10520835;28;1468;-76
2022/03/25 18:30:34;;;;;;;;;;;13.20;66.80;;;12.24;32.88;96362.25;10519221;28;1965;-74
2022/03/25 18:35:39;;;;;;;;;;;13.10;67.40;;;12.41;32.79;96368.19;10527403;22;2362;-71
2022/03/25 18:40:42;;;;;;;;;;;13.30;67.90;;;12.21;33.24;96371.69;10483221;28;1484;-71
2022/03/25 18:45:45;;;;;;;;;;;13.20;68.10;;;12.08;34.66;96372.22;10480589;28;1856;-70
2022/03/25 18:50:49;;;;;;;;;;;13.00;68.60;;;12.00;34.59;96375.44;10453423;28;1977;-71
2022/03/25 18:55:51;;;;;;;;;;;12.90;69.10;;;11.99;34.50;96381.91;10450397;28;1552;-72
2022/03/25 19:00:55;;;;;;;;;;;12.90;69.60;;;12.09;34.38;96388.13;10461630;28;1459;-70
2022/03/25 19:05:59;;;;;;;;;;;12.90;69.50;;;11.92;35.15;96387.56;10445636;28;1453;-70
2022/03/25 19:11:02;;;;;;;;;;;12.90;69.80;;;11.67;35.78;96382.09;10450407;28;1910;-71
2022/03/25 19:16:06;;;;;;;;;;;12.60;70.10;;;11.63;35.19;96382.59;10451382;28;1641;-70
2022/03/25 19:21:09;;;;;;;;;;;12.50;70.60;;;11.62;35.58;96390.94;10452749;28;1802;-71
2022/03/25 19:26:12;;;;;;;;;;;12.50;70.80;;;11.59;35.77;96397.69;10434536;28;1613;-70
2022/03/25 19:31:15;;;;;;;;;;;12.50;70.80;;;11.46;36.32;96405.47;10449421;28;1910;-72
2022/03/25 19:36:17;;;;;;;;;;;12.50;70.90;;;11.40;35.80;96407.31;10450426;28;1427;-72
2022/03/25 19:41:26;;;;;;;;;;;12.40;70.80;;;11.27;36.00;96414.00;10441702;28;1465;-71
2022/03/25 19:46:29;;;;;;;;;;;12.30;71.00;;;11.31;36.50;96416.94;10438850;28;1832;-71
2022/03/25 19:51:32;;;;;;;;;;;12.20;71.10;;;11.20;36.58;96412.59;10444984;28;1991;-71
2022/03/25 19:56:35;;;;;;;;;;;12.10;71.40;;;11.00;36.81;96415.97;10446065;28;1464;-70
2022/03/25 20:01:40;;;;;;;;;;;12.00;71.60;;;10.78;37.61;96419.63;10445827;28;1533;-71
2022/03/25 20:06:43;;;;;;;;;;;11.80;72.00;;;10.63;37.97;96424.91;10437534;28;2253;-71
2022/03/25 20:11:47;;;;;;;;;;;11.60;72.40;;;10.58;38.20;96427.53;10444590;28;1918;-71
2022/03/25 20:16:51;;;;;;;;;;;11.50;72.80;;;10.50;38.36;96430.72;10444196;28;1534;-71
2022/03/25 20:21:54;;;;;;;;;;;11.50;73.00;;;10.48;38.23;96427.44;10443108;28;1970;-71
2022/03/25 20:26:57;;;;;;;;;;;11.40;73.10;;;10.33;38.99;96432.72;10437094;28;1646;-71
2022/03/25 20:32:00;;;;;;;;;;;11.30;73.50;;;10.28;38.98;96430.78;10443864;28;1914;-71
2022/03/25 20:37:04;;;;;;;;;;;11.20;73.70;;;10.23;39.10;96436.09;10444436;28;1776;-70
2022/03/25 20:42:07;;;;;;;;;;;11.10;74.00;;;10.17;39.45;96439.78;10453781;28;1568;-72
2022/03/25 20:47:10;;;;;;;;;;;11.10;74.30;;;10.07;39.69;96440.50;10444414;28;1654;-72
2022/03/25 20:52:13;;;;;;;;;;;11.00;74.30;;;10.01;39.51;96441.53;10466719;28;1977;-72
2022/03/25 20:57:16;;;;;;;;;;;10.90;74.40;;;9.91;39.81;96450.28;10442877;28;1949;-69
2022/03/25 21:02:20;;;;;;;;;;;10.90;74.70;;;9.62;40.74;96444.31;10440967;28;1417;-69
2022/03/25 21:07:23;;;;;;;;;;;10.70;75.10;;;9.61;40.96;96453.44;10445416;28;1523;-69
2022/03/25 21:12:27;;;;;;;;;;;10.60;75.30;;;9.53;40.94;96453.84;10444715;28;1910;-70
2022/03/25 21:17:30;;;;;;;;;;;10.50;75.80;;;9.46;40.95;96454.06;10454674;28;2014;-70
2022/03/25 21:22:34;;;;;;;;;;;10.40;76.00;;;9.06;42.48;96454.34;10441353;28;1607;-70
2022/03/25 21:27:37;;;;;;;;;;;10.20;76.40;;;9.04;42.78;96458.34;10443797;28;1537;-70
2022/03/25 21:32:40;;;;;;;;;;;10.10;77.10;;;9.11;42.77;96451.72;10443881;28;1987;-70
2022/03/25 21:37:43;;;;;;;;;;;10.00;77.10;;;9.15;42.43;96452.03;10452466;28;1545;-71
2022/03/25 21:42:46;;;;;;;;;;;9.90;77.30;;;9.15;42.78;96460.88;10452835;28;1482;-71
2022/03/25 21:47:50;;;;;;;;;;;9.90;77.50;;;8.89;43.33;96465.09;10450061;28;1522;-71
2022/03/25 21:52:55;;;;;;;;;;;9.90;77.80;;;8.92;43.11;96469.16;10459398;28;1918;-71
2022/03/25 21:57:59;;;;;;;;;;;9.90;78.10;;;8.92;43.36;96474.53;10462366;28;1884;-71
2022/03/25 22:03:02;;;;;;;;;;;9.80;78.30;;;8.76;44.21;96469.97;10458039;28;1861;-70
2022/03/25 22:08:05;;;;;;;;;;;9.80;78.70;;;8.65;43.83;96479.72;10453548;28;1915;-71
2022/03/25 22:13:11;;;;;;;;;;;9.70;79.00;;;8.56;44.24;96475.81;10443880;28;2058;-70
2022/03/25 22:18:13;;;;;;;;;;;9.80;79.10;;;8.52;45.18;96475.47;10449614;28;1884;-71
2022/03/25 22:23:16;;;;;;;;;;;9.80;79.60;;;8.37;44.86;96483.28;10452916;28;2152;-70
2022/03/25 22:28:22;;;;;;;;;;;9.70;79.80;;;8.23;46.11;96481.94;10450639;28;1804;-70
2022/03/25 22:33:25;;;;;;;;;;;9.30;79.90;;;8.19;45.63;96475.44;10451985;28;1921;-70
2022/03/25 22:38:28;;;;;;;;;;;9.30;80.50;;;8.26;45.47;96476.91;10455812;28;2158;-71
2022/03/25 22:43:31;;;;;;;;;;;9.20;80.60;;;7.93;46.68;96476.84;10439900;28;1871;-71
2022/03/25 22:48:34;;;;;;;;;;;9.10;80.80;;;7.88;47.78;96474.88;10453109;28;1945;-71
2022/03/25 22:53:37;;;;;;;;;;;9.00;81.30;;;7.83;47.42;96474.78;10443946;28;1914;-71
2022/03/25 22:58:41;;;;;;;;;;;8.90;81.90;;;7.67;48.68;96472.88;10450525;28;1814;-71
2022/03/25 23:03:44;;;;;;;;;;;8.80;82.30;;;7.35;49.06;96470.63;10438600;28;1886;-72
2022/03/25 23:08:48;;;;;;;;;;;8.60;82.40;;;7.51;48.77;96474.44;10477284;28;2010;-71
2022/03/25 23:13:51;;;;;;;;;;;8.60;83.00;;;7.39;49.00;96477.13;10479867;28;1957;-70
2022/03/25 23:18:55;;;;;;;;;;;8.50;83.20;;;7.26;49.67;96483.56;10465937;28;1813;-73
2022/03/25 23:23:58;;;;;;;;;;;8.50;83.40;;;7.12;49.77;96481.34;10451259;28;1729;-72
2022/03/25 23:29:02;;;;;;;;;;;8.60;83.80;;;7.12;50.61;96481.34;10440816;28;1797;-71
2022/03/25 23:34:05;;;;;;;;;;;8.10;88.80;;;6.94;51.19;96488.47;10438143;28;1914;-70
2022/03/25 23:39:07;;;;;;;;;;;8.10;88.80;;;6.88;51.95;96483.25;10447726;28;1919;-71
2022/03/25 23:44:10;;;;;;;;;;;8.00;87.10;;;6.72;52.58;96492.75;10447653;28;1900;-71